createdAt,value
2022-10-05T00:01:43.369Z,101006.66
2022-10-05T00:04:15.353Z,101010.63
2022-10-05T00:06:44.696Z,101004.63
2022-10-05T00:09:17.133Z,100997.00
2022-10-05T00:11:45.492Z,100990.63
2022-10-05T00:14:19.289Z,100977.91
2022-10-05T00:16:47.239Z,100980.56
2022-10-05T00:19:21.941Z,100975.53
2022-10-05T00:21:49.587Z,100978.22
2022-10-05T00:24:19.763Z,100972.81
2022-10-05T00:26:48.277Z,100973.72
2022-10-05T00:29:22.608Z,100967.06
2022-10-05T00:31:50.716Z,100973.91
2022-10-05T00:34:18.888Z,100972.06
2022-10-05T00:36:46.736Z,100973.00
2022-10-05T00:39:14.486Z,100964.16
2022-10-05T00:41:54.736Z,100973.28
2022-10-05T00:44:34.679Z,100968.63
2022-10-05T00:47:12.747Z,100969.41
2022-10-05T00:49:51.353Z,100978.56
2022-10-05T00:52:25.933Z,100976.53
2022-10-05T00:55:00.412Z,100983.69
2022-10-05T00:57:35.151Z,100983.88
2022-10-05T01:00:07.997Z,100984.44
2022-10-05T01:02:44.120Z,100978.88
2022-10-05T01:05:15.391Z,100974.63
2022-10-05T01:07:48.092Z,100979.53
2022-10-05T01:10:21.219Z,100972.97
2022-10-05T01:12:54.768Z,100961.91
2022-10-05T01:15:27.155Z,100948.75
2022-10-05T01:17:58.429Z,100957.47
2022-10-05T01:20:36.024Z,100952.66
2022-10-05T01:23:27.168Z,100942.63
2022-10-05T01:26:04.711Z,100934.13
2022-10-05T01:28:36.989Z,100940.72
2022-10-05T01:31:10.723Z,100950.88
2022-10-05T01:33:41.839Z,100937.91
2022-10-05T01:36:52.795Z,100926.88
2022-10-05T01:39:26.069Z,100921.06
2022-10-05T01:41:59.507Z,100918.63
2022-10-05T01:44:31.415Z,100916.63
2022-10-05T01:47:03.642Z,100930.38
2022-10-05T01:49:37.839Z,100923.00
2022-10-05T01:52:23.185Z,100907.63
2022-10-05T01:54:59.000Z,100905.75
2022-10-05T01:57:35.479Z,100891.81
2022-10-05T02:00:09.110Z,100894.91
2022-10-05T02:02:39.514Z,100892.97
2022-10-05T02:05:11.103Z,100885.63
2022-10-05T02:07:42.535Z,100876.88
2022-10-05T02:10:18.033Z,100877.06
2022-10-05T02:12:47.238Z,100870.19
2022-10-05T02:15:19.286Z,100866.53
2022-10-05T02:17:49.549Z,100865.78
2022-10-05T02:20:21.895Z,100871.31
2022-10-05T02:22:52.517Z,100870.13
2022-10-05T02:25:22.712Z,100874.66
2022-10-05T02:27:54.331Z,100877.97
2022-10-05T02:30:23.328Z,100860.06
2022-10-05T02:32:54.284Z,100849.44
2022-10-05T02:35:22.795Z,100862.28
2022-10-05T02:37:58.627Z,100863.63
2022-10-05T02:40:33.984Z,100858.22
2022-10-05T02:43:07.529Z,100858.78
2022-10-05T02:45:43.358Z,100847.13
2022-10-05T02:48:16.670Z,100834.59
2022-10-05T02:50:50.848Z,100832.13
2022-10-05T02:53:25.477Z,100836.28
2022-10-05T02:55:59.977Z,100837.63
2022-10-05T02:58:29.508Z,100835.75
2022-10-05T03:01:01.845Z,100828.84
2022-10-05T03:03:33.611Z,100835.00
2022-10-05T03:06:03.339Z,100829.69
2022-10-05T03:08:34.178Z,100830.28
2022-10-05T03:11:07.402Z,100829.34
2022-10-05T03:13:42.248Z,100828.75
2022-10-05T03:16:20.385Z,100842.19
2022-10-05T03:18:58.737Z,100845.78
2022-10-05T03:21:37.465Z,100852.22
2022-10-05T03:24:17.662Z,100846.31
2022-10-05T03:26:49.868Z,100849.91
2022-10-05T03:29:28.170Z,100852.47
2022-10-05T03:32:00.395Z,100851.81
2022-10-05T03:34:32.313Z,100850.59
2022-10-05T03:37:04.477Z,100841.22
2022-10-05T03:39:36.331Z,100833.13
2022-10-05T03:42:09.890Z,100831.81
2022-10-05T03:44:45.307Z,100833.69
2022-10-05T03:47:21.077Z,100838.59
2022-10-05T03:50:08.525Z,100845.13
2022-10-05T03:52:39.372Z,100851.94
2022-10-05T03:55:14.733Z,100845.78
2022-10-05T03:57:43.640Z,100851.53
2022-10-05T04:00:15.961Z,100852.00
2022-10-05T04:02:50.105Z,100856.34
2022-10-05T04:05:20.385Z,100844.47
2022-10-05T04:07:51.185Z,100844.66
2022-10-05T04:10:23.266Z,100845.59
2022-10-05T04:12:55.511Z,100838.78
2022-10-05T04:15:29.772Z,100831.81
2022-10-05T04:18:01.728Z,100824.81
2022-10-05T04:20:32.915Z,100836.72
2022-10-05T04:23:05.761Z,100827.25
2022-10-05T04:25:36.903Z,100829.78
2022-10-05T04:28:11.095Z,100833.13
2022-10-05T04:30:40.192Z,100829.53
2022-10-05T04:33:12.497Z,100844.47
2022-10-05T04:36:06.255Z,100826.22
2022-10-05T04:38:54.858Z,100821.00
2022-10-05T04:41:34.075Z,100832.72
2022-10-05T04:44:14.235Z,100820.81
2022-10-05T04:46:56.209Z,100826.31
2022-10-05T04:49:41.332Z,100821.94
2022-10-05T04:52:16.115Z,100808.81
2022-10-05T04:54:51.176Z,100819.84
2022-10-05T04:57:22.051Z,100814.41
2022-10-05T05:00:11.103Z,100813.63
2022-10-05T05:02:59.650Z,100813.25
2022-10-05T05:05:32.951Z,100810.41
2022-10-05T05:08:07.843Z,100809.22
2022-10-05T05:10:51.464Z,100809.09
2022-10-05T05:13:43.019Z,100801.06
2022-10-05T05:16:12.993Z,100793.38
2022-10-05T05:18:54.359Z,100791.53
2022-10-05T05:21:32.949Z,100792.84
2022-10-05T05:24:06.405Z,100790.84
2022-10-05T05:26:43.797Z,100792.84
2022-10-05T05:29:20.675Z,100791.88
2022-10-05T05:31:50.212Z,100779.50
2022-10-05T05:34:34.958Z,100786.78
2022-10-05T05:37:08.696Z,100779.91
2022-10-05T05:39:43.714Z,100785.84
2022-10-05T05:42:21.452Z,100786.59
2022-10-05T05:44:51.034Z,100782.44
2022-10-05T05:47:21.195Z,100788.09
2022-10-05T05:50:07.989Z,100782.25
2022-10-05T05:52:40.080Z,100775.34
2022-10-05T05:55:09.829Z,100786.03
2022-10-05T05:57:39.950Z,100773.47
2022-10-05T06:00:11.276Z,100779.03
2022-10-05T06:02:42.024Z,100780.34
2022-10-05T06:05:24.319Z,100781.09
2022-10-05T06:07:54.476Z,100776.09
2022-10-05T06:10:29.601Z,100769.00
2022-10-05T06:13:01.576Z,100777.78
2022-10-05T06:15:33.885Z,100777.09
2022-10-05T06:18:04.496Z,100769.91
2022-10-05T06:20:37.012Z,100779.75
2022-10-05T06:23:08.932Z,100782.03
2022-10-05T06:25:45.794Z,100786.94
2022-10-05T06:28:14.973Z,100788.44
2022-10-05T06:30:50.324Z,100789.53
2022-10-05T06:33:24.281Z,100788.03
2022-10-05T06:36:05.212Z,100782.00
2022-10-05T06:38:57.504Z,100786.53
2022-10-05T06:41:33.537Z,100789.13
2022-10-05T06:44:04.106Z,100781.94
2022-10-05T06:46:33.145Z,100786.06
2022-10-05T06:49:21.963Z,100786.38
2022-10-05T06:51:54.214Z,100781.94
2022-10-05T06:54:38.698Z,100790.00
2022-10-05T06:57:13.297Z,100787.69
2022-10-05T06:59:45.021Z,100783.22
2022-10-05T07:02:18.228Z,100789.16
2022-10-05T07:05:05.752Z,100793.06
2022-10-05T07:07:40.595Z,100795.72
2022-10-05T07:10:18.770Z,100795.31
2022-10-05T07:12:57.216Z,100789.19
2022-10-05T07:15:41.236Z,100798.94
2022-10-05T07:18:26.948Z,100806.88
2022-10-05T07:20:59.482Z,100805.13
2022-10-05T07:23:38.602Z,100799.47
2022-10-05T07:26:10.980Z,100797.13
2022-10-05T07:28:46.087Z,100797.03
2022-10-05T07:31:20.054Z,100804.66
2022-10-05T07:33:52.850Z,100809.44
2022-10-05T07:36:43.191Z,100805.75
2022-10-05T07:39:15.901Z,100808.47
2022-10-05T07:41:47.693Z,100800.69
2022-10-05T07:44:19.760Z,100805.84
2022-10-05T07:46:52.848Z,100799.47
2022-10-05T07:49:26.620Z,100805.09
2022-10-05T07:51:57.348Z,100806.06
2022-10-05T07:54:27.884Z,100807.31
2022-10-05T07:57:03.046Z,100786.13
2022-10-05T07:59:35.548Z,100800.75
2022-10-05T08:02:08.792Z,100804.38
2022-10-05T08:04:42.082Z,100801.09
2022-10-05T08:07:14.718Z,100797.88
2022-10-05T08:09:45.353Z,100807.44
2022-10-05T08:12:22.106Z,100796.94
2022-10-05T08:14:53.983Z,100790.59
2022-10-05T08:17:27.557Z,100788.41
2022-10-05T08:20:02.269Z,100793.84
2022-10-05T08:22:32.223Z,100800.25
2022-10-05T08:25:03.324Z,100792.00
2022-10-05T08:27:38.102Z,100786.69
2022-10-05T08:30:07.085Z,100784.75
2022-10-05T08:32:40.081Z,100790.59
2022-10-05T08:35:19.181Z,100769.88
2022-10-05T08:37:47.625Z,100782.72
2022-10-05T08:40:35.817Z,100784.25
2022-10-05T08:43:18.262Z,100768.47
2022-10-05T08:46:05.221Z,100767.13
2022-10-05T08:48:45.041Z,100776.03
2022-10-05T08:51:42.490Z,100770.59
2022-10-05T08:54:35.054Z,100756.47
2022-10-05T08:57:32.102Z,100769.50
2022-10-05T09:00:06.249Z,100768.44
2022-10-05T09:02:45.513Z,100763.66
2022-10-05T09:05:29.824Z,100764.34
2022-10-05T09:08:30.951Z,100767.25
2022-10-05T09:11:02.458Z,100759.63
2022-10-05T09:13:54.507Z,100760.66
2022-10-05T09:16:42.294Z,100764.31
2022-10-05T09:19:58.197Z,100757.06
2022-10-05T09:22:37.859Z,100756.59
2022-10-05T09:25:24.191Z,100745.47
2022-10-05T09:27:56.179Z,100755.16
2022-10-05T09:30:27.937Z,100749.81
2022-10-05T09:33:40.905Z,100741.94
2022-10-05T09:36:24.762Z,100740.53
2022-10-05T09:39:24.823Z,100746.31
2022-10-05T09:42:19.741Z,100735.31
2022-10-05T09:45:22.475Z,100726.84
2022-10-05T09:48:27.949Z,100729.41
2022-10-05T09:51:36.992Z,100728.13
2022-10-05T09:54:44.657Z,100720.16
2022-10-05T09:57:28.623Z,100711.03
2022-10-05T10:00:09.359Z,100703.31
2022-10-05T10:02:52.415Z,100720.41
2022-10-05T10:05:31.843Z,100708.81
2022-10-05T10:08:20.163Z,100702.50
2022-10-05T10:10:56.307Z,100688.50
2022-10-05T10:13:51.981Z,100702.34
2022-10-05T10:16:31.736Z,100693.75
2022-10-05T10:19:12.436Z,100681.91
2022-10-05T10:22:02.913Z,100700.00
2022-10-05T10:24:48.416Z,100696.34
2022-10-05T10:27:32.130Z,100684.63
2022-10-05T10:30:27.739Z,100679.88
2022-10-05T10:33:29.448Z,100684.72
2022-10-05T10:36:02.991Z,100682.53
2022-10-05T10:38:41.185Z,100677.53
2022-10-05T10:41:45.990Z,100679.31
2022-10-05T10:44:42.586Z,100680.97
2022-10-05T10:47:28.205Z,100671.69
2022-10-05T10:50:22.954Z,100668.81
2022-10-05T10:53:06.611Z,100658.50
2022-10-05T10:55:42.465Z,100669.78
2022-10-05T10:59:03.927Z,100655.81
2022-10-05T11:01:36.287Z,100662.00
2022-10-05T11:04:30.285Z,100660.28
2022-10-05T11:07:27.873Z,100655.91
2022-10-05T11:10:02.954Z,100661.41
2022-10-05T11:12:51.348Z,100640.19
2022-10-05T11:16:01.040Z,100653.22
2022-10-05T11:18:40.232Z,100647.44
2022-10-05T11:21:22.003Z,100648.13
2022-10-05T11:24:26.861Z,100642.75
2022-10-05T11:27:18.866Z,100636.50
2022-10-05T11:30:12.052Z,100634.97
2022-10-05T11:32:56.158Z,100634.38
2022-10-05T11:35:39.334Z,100631.69
2022-10-05T11:38:18.956Z,100636.31
2022-10-05T11:41:17.631Z,100628.81
2022-10-05T11:43:55.689Z,100614.81
2022-10-05T11:46:26.098Z,100611.78
2022-10-05T11:49:09.589Z,100610.31
2022-10-05T11:51:45.238Z,100594.72
2022-10-05T11:54:25.897Z,100591.97
2022-10-05T11:56:57.761Z,100596.31
2022-10-05T11:59:31.475Z,100585.34
2022-10-05T12:02:08.715Z,100589.97
2022-10-05T12:04:45.314Z,100590.78
2022-10-05T12:07:20.067Z,100584.63
2022-10-05T12:10:20.064Z,100586.94
2022-10-05T12:12:56.998Z,100587.91
2022-10-05T12:15:28.360Z,100584.69
2022-10-05T12:18:01.360Z,100582.59
2022-10-05T12:20:36.087Z,100577.72
2022-10-05T12:23:08.369Z,100585.09
2022-10-05T12:25:39.812Z,100590.16
2022-10-05T12:28:13.208Z,100580.09
2022-10-05T12:31:01.217Z,100589.53
2022-10-05T12:33:35.367Z,100599.56
2022-10-05T12:36:06.775Z,100595.94
2022-10-05T12:38:39.416Z,100588.03
2022-10-05T12:41:12.842Z,100591.03
2022-10-05T12:43:47.956Z,100580.03
2022-10-05T12:46:21.651Z,100587.66
2022-10-05T12:49:05.893Z,100581.94
2022-10-05T12:51:39.942Z,100584.97
2022-10-05T12:54:18.523Z,100595.50
2022-10-05T12:56:50.682Z,100585.25
2022-10-05T12:59:29.303Z,100581.13
2022-10-05T13:02:03.323Z,100583.41
2022-10-05T13:04:42.657Z,100573.41
2022-10-05T13:07:30.878Z,100584.22
2022-10-05T13:10:05.275Z,100560.63
2022-10-05T13:12:40.428Z,100572.38
2022-10-05T13:15:16.628Z,100569.63
2022-10-05T13:17:51.260Z,100567.41
2022-10-05T13:20:22.200Z,100575.81
2022-10-05T13:22:57.775Z,100565.69
2022-10-05T13:25:30.634Z,100554.47
2022-10-05T13:28:16.567Z,100563.88
2022-10-05T13:30:52.513Z,100557.28
2022-10-05T13:33:27.692Z,100548.41
2022-10-05T13:36:00.546Z,100550.78
2022-10-05T13:38:38.869Z,100547.44
2022-10-05T13:41:14.658Z,100555.72
2022-10-05T13:43:47.883Z,100556.44
2022-10-05T13:46:21.298Z,100557.84
2022-10-05T13:49:00.571Z,100541.81
2022-10-05T13:51:31.112Z,100535.63
2022-10-05T13:54:05.802Z,100537.59
2022-10-05T13:56:37.470Z,100534.22
2022-10-05T13:59:22.829Z,100526.91
2022-10-05T14:01:55.275Z,100529.16
2022-10-05T14:04:24.543Z,100526.22
2022-10-05T14:06:53.040Z,100519.34
2022-10-05T14:09:31.751Z,100519.19
2022-10-05T14:12:20.769Z,100518.91
2022-10-05T14:14:50.673Z,100526.78
2022-10-05T14:17:32.838Z,100525.38
2022-10-05T14:20:02.783Z,100523.28
2022-10-05T14:22:30.372Z,100527.22
2022-10-05T14:25:13.670Z,100520.47
2022-10-05T14:27:53.540Z,100515.41
2022-10-05T14:30:23.911Z,100514.69
2022-10-05T14:32:55.748Z,100511.16
2022-10-05T14:35:25.538Z,100502.16
2022-10-05T14:37:57.290Z,100511.47
2022-10-05T14:40:33.511Z,100504.69
2022-10-05T14:43:06.910Z,100498.97
2022-10-05T14:45:35.435Z,100491.47
2022-10-05T14:48:10.318Z,100487.25
2022-10-05T14:50:52.582Z,100483.19
2022-10-05T14:53:22.341Z,100479.25
2022-10-05T14:56:09.329Z,100480.25
2022-10-05T14:59:13.760Z,100481.94
2022-10-05T15:01:46.697Z,100486.72
2022-10-05T15:04:24.954Z,100484.47
2022-10-05T15:07:00.624Z,100485.31
2022-10-05T15:09:46.200Z,100485.56
2022-10-05T15:12:15.273Z,100483.03
2022-10-05T15:14:45.482Z,100486.41
2022-10-05T15:17:17.482Z,100490.63
2022-10-05T15:19:52.807Z,100482.63
2022-10-05T15:22:28.978Z,100487.97
2022-10-05T15:25:04.300Z,100486.72
2022-10-05T15:27:38.001Z,100492.59
2022-10-05T15:30:11.280Z,100500.50
2022-10-05T15:32:56.864Z,100495.72
2022-10-05T15:35:43.348Z,100488.72
2022-10-05T15:38:21.684Z,100488.97
2022-10-05T15:40:59.475Z,100494.19
2022-10-05T15:43:35.880Z,100499.66
2022-10-05T15:46:10.916Z,100502.91
2022-10-05T15:48:45.320Z,100491.19
2022-10-05T15:51:18.970Z,100509.34
2022-10-05T15:54:13.537Z,100498.50
2022-10-05T15:56:43.955Z,100501.38
2022-10-05T15:59:18.499Z,100507.47
2022-10-05T16:01:51.603Z,100513.09
2022-10-05T16:04:23.072Z,100506.09
2022-10-05T16:07:09.865Z,100521.81
2022-10-05T16:09:46.486Z,100524.34
2022-10-05T16:12:34.420Z,100531.63
2022-10-05T16:15:17.570Z,100522.91
2022-10-05T16:17:58.573Z,100546.66
2022-10-05T16:20:42.564Z,100545.91
2022-10-05T16:23:21.313Z,100549.94
2022-10-05T16:25:58.720Z,100552.75
2022-10-05T16:28:36.630Z,100564.94
2022-10-05T16:31:11.296Z,100564.91
2022-10-05T16:33:52.779Z,100566.41
2022-10-05T16:36:27.321Z,100559.81
2022-10-05T16:39:01.534Z,100554.56
2022-10-05T16:41:32.817Z,100564.28
2022-10-05T16:44:05.080Z,100567.50
2022-10-05T16:46:38.262Z,100566.38
2022-10-05T16:49:13.758Z,100577.03
2022-10-05T16:51:46.891Z,100575.09
2022-10-05T16:54:19.102Z,100575.09
2022-10-05T16:56:51.041Z,100583.75
2022-10-05T16:59:43.211Z,100576.41
2022-10-05T17:02:19.176Z,100574.19
2022-10-05T17:04:57.883Z,100582.78
2022-10-05T17:07:48.820Z,100583.50
2022-10-05T17:10:29.603Z,100602.72
2022-10-05T17:13:04.028Z,100606.94
2022-10-05T17:15:34.689Z,100607.34
2022-10-05T17:18:17.567Z,100606.38
2022-10-05T17:20:49.161Z,100613.28
2022-10-05T17:23:30.145Z,100614.47
2022-10-05T17:26:04.093Z,100609.41
2022-10-05T17:28:39.549Z,100607.00
2022-10-05T17:31:13.897Z,100621.53
2022-10-05T17:34:11.527Z,100625.66
2022-10-05T17:36:44.262Z,100626.97
2022-10-05T17:39:15.509Z,100629.53
2022-10-05T17:41:43.394Z,100627.13
2022-10-05T17:44:26.047Z,100625.94
2022-10-05T17:46:55.978Z,100633.00
2022-10-05T17:49:40.228Z,100635.41
2022-10-05T17:52:43.869Z,100652.88
2022-10-05T17:55:40.859Z,100640.91
2022-10-05T17:59:00.543Z,100644.44
2022-10-05T18:01:31.162Z,100662.00
2022-10-05T18:04:30.334Z,100664.31
2022-10-05T18:07:03.101Z,100662.59
2022-10-05T18:09:37.686Z,100671.44
2022-10-05T18:12:25.632Z,100688.72
2022-10-05T18:15:03.565Z,100674.81
2022-10-05T18:17:41.054Z,100663.44
2022-10-05T18:20:18.016Z,100667.06
2022-10-05T18:22:46.722Z,100664.78
2022-10-05T18:25:26.164Z,100660.63
2022-10-05T18:28:14.921Z,100666.94
2022-10-05T18:30:58.962Z,100658.97
2022-10-05T18:33:49.191Z,100663.31
2022-10-05T18:36:27.103Z,100671.78
2022-10-05T18:39:00.835Z,100667.81
2022-10-05T18:41:41.711Z,100664.78
2022-10-05T18:44:23.415Z,100676.84
2022-10-05T18:46:54.162Z,100676.16
2022-10-05T18:49:34.499Z,100664.53
2022-10-05T18:52:06.444Z,100681.69
2022-10-05T18:54:51.363Z,100678.56
2022-10-05T18:57:34.955Z,100683.59
2022-10-05T19:00:05.299Z,100682.66
2022-10-05T19:02:36.651Z,100671.06
2022-10-05T19:05:29.167Z,100670.94
2022-10-05T19:08:04.948Z,100676.88
2022-10-05T19:10:39.275Z,100689.06
2022-10-05T19:13:18.439Z,100690.66
2022-10-05T19:15:52.082Z,100684.84
2022-10-05T19:18:44.586Z,100699.34
2022-10-05T19:21:21.969Z,100694.75
2022-10-05T19:24:04.357Z,100691.38
2022-10-05T19:26:46.796Z,100689.78
2022-10-05T19:29:27.033Z,100695.25
2022-10-05T19:31:56.448Z,100689.19
2022-10-05T19:34:37.944Z,100688.94
2022-10-05T19:37:09.467Z,100692.97
2022-10-05T19:39:40.796Z,100697.19
2022-10-05T19:42:25.231Z,100702.03
2022-10-05T19:45:05.220Z,100699.00
2022-10-05T19:47:42.207Z,100703.00
2022-10-05T19:50:28.299Z,100705.06
2022-10-05T19:53:03.921Z,100699.38
2022-10-05T19:55:37.013Z,100693.56
2022-10-05T19:58:18.012Z,100700.34
2022-10-05T20:00:53.690Z,100699.00
2022-10-05T20:03:27.512Z,100708.31
2022-10-05T20:05:56.389Z,100710.25
2022-10-05T20:08:27.079Z,100705.03
2022-10-05T20:11:11.569Z,100707.09
2022-10-05T20:13:41.660Z,100710.72
2022-10-05T20:16:40.445Z,100719.19
2022-10-05T20:19:44.367Z,100720.41
2022-10-05T20:22:26.112Z,100730.34
2022-10-05T20:24:55.290Z,100727.41
2022-10-05T20:27:44.668Z,100729.22
2022-10-05T20:30:14.436Z,100736.38
2022-10-05T20:32:43.581Z,100740.34
2022-10-05T20:35:11.660Z,100741.31
2022-10-05T20:37:40.221Z,100753.41
2022-10-05T20:40:10.254Z,100755.84
2022-10-05T20:42:37.907Z,100760.19
2022-10-05T20:45:06.261Z,100753.28
2022-10-05T20:47:34.047Z,100781.13
2022-10-05T20:50:05.462Z,100774.59
2022-10-05T20:52:32.981Z,100782.34
2022-10-05T20:55:01.634Z,100804.34
2022-10-05T20:57:29.168Z,100825.16
2022-10-05T20:59:56.693Z,100874.19
2022-10-05T21:02:24.284Z,100863.78
2022-10-05T21:04:51.896Z,100874.94
2022-10-05T21:07:21.032Z,100862.94
2022-10-05T21:09:48.599Z,100860.72
2022-10-05T21:12:17.240Z,100892.88
2022-10-05T21:14:45.303Z,100887.34
2022-10-05T21:17:12.821Z,100888.94
2022-10-05T21:19:40.622Z,100903.78
2022-10-05T21:22:09.794Z,100910.50
2022-10-05T21:24:40.857Z,100922.38
2022-10-05T21:27:09.525Z,100927.84
2022-10-05T21:29:37.225Z,100927.94
2022-10-05T21:32:08.354Z,100932.50
2022-10-05T21:34:36.030Z,100932.28
2022-10-05T21:37:03.615Z,100931.28
2022-10-05T21:39:31.340Z,100950.41
2022-10-05T21:42:00.202Z,100959.41
2022-10-05T21:44:27.735Z,100964.78
2022-10-05T21:46:55.987Z,100970.69
2022-10-05T21:49:23.709Z,100990.84
2022-10-05T21:51:51.379Z,100986.78
2022-10-05T21:54:20.797Z,100989.44
2022-10-05T21:56:51.761Z,100989.06
2022-10-05T21:59:22.469Z,100995.78
2022-10-05T22:01:50.041Z,101000.59
2022-10-05T22:04:17.562Z,101001.47
2022-10-05T22:06:45.087Z,101007.41
2022-10-05T22:09:13.019Z,101001.91
2022-10-05T22:11:40.615Z,101014.88
2022-10-05T22:14:08.159Z,101020.47
2022-10-05T22:16:38.842Z,101034.84
2022-10-05T22:19:11.846Z,101030.97
2022-10-05T22:21:41.650Z,101017.16
2022-10-05T22:24:09.679Z,101026.69
2022-10-05T22:26:37.194Z,101026.13
2022-10-05T22:29:04.834Z,101037.31
2022-10-05T22:31:32.493Z,101044.88
2022-10-05T22:34:01.395Z,101045.22
2022-10-05T22:36:29.116Z,101045.63
2022-10-05T22:38:56.623Z,101046.41
2022-10-05T22:41:24.158Z,101058.03
2022-10-05T22:43:51.944Z,101060.59
2022-10-05T22:46:19.774Z,101059.53
2022-10-05T22:48:47.968Z,101077.41
2022-10-05T22:51:16.855Z,101071.75
2022-10-05T22:53:44.397Z,101078.00
2022-10-05T22:56:13.841Z,101083.38
2022-10-05T22:58:42.238Z,101086.31
2022-10-05T23:01:11.195Z,101090.84
2022-10-05T23:03:39.023Z,101091.88
2022-10-05T23:06:08.993Z,101091.97
2022-10-05T23:08:39.040Z,101102.56
2022-10-05T23:11:08.278Z,101092.53
2022-10-05T23:13:35.907Z,101097.94
2022-10-05T23:16:08.041Z,101105.03
2022-10-05T23:18:35.779Z,101118.31
2022-10-05T23:21:03.480Z,101117.75
2022-10-05T23:23:31.007Z,101119.72
2022-10-05T23:26:02.981Z,101129.22
2022-10-05T23:28:31.202Z,101126.13
2022-10-05T23:31:00.421Z,101130.50
2022-10-05T23:33:28.100Z,101143.00
2022-10-05T23:35:59.889Z,101158.19
2022-10-05T23:38:27.810Z,101161.09
2022-10-05T23:40:56.051Z,101159.06
2022-10-05T23:43:25.182Z,101175.59
2022-10-05T23:45:52.828Z,101172.72
2022-10-05T23:48:20.557Z,101178.97
2022-10-05T23:50:48.207Z,101182.94
2022-10-05T23:53:16.108Z,101186.69
2022-10-05T23:55:43.830Z,101194.81
2022-10-05T23:58:11.403Z,101198.69
